createdAt,value
2023-02-26T00:00:04.066Z,-0.81
2023-02-26T00:01:04.081Z,-0.75
2023-02-26T00:02:04.096Z,-0.81
2023-02-26T00:03:04.039Z,-0.81
2023-02-26T00:04:04.065Z,-0.81
2023-02-26T00:05:04.068Z,-0.75
2023-02-26T00:06:04.079Z,-0.75
2023-02-26T00:07:04.072Z,-0.81
2023-02-26T00:08:04.003Z,-0.81
2023-02-26T00:09:04.190Z,-0.81
2023-02-26T00:10:04.101Z,-0.75
2023-02-26T00:11:04.068Z,-0.81
2023-02-26T00:12:04.081Z,-0.81
2023-02-26T00:13:03.927Z,-0.81
2023-02-26T00:14:04.014Z,-0.81
2023-02-26T00:15:03.916Z,-0.81
2023-02-26T00:16:03.928Z,-0.81
2023-02-26T00:17:04.035Z,-0.81
2023-02-26T00:18:04.154Z,-0.81
2023-02-26T00:19:04.141Z,-0.75
2023-02-26T00:20:04.060Z,-0.81
2023-02-26T00:21:04.060Z,-0.81
2023-02-26T00:22:04.150Z,-0.81
2023-02-26T00:23:04.147Z,-0.81
2023-02-26T00:24:04.075Z,-0.81
2023-02-26T00:25:04.001Z,-0.81
2023-02-26T00:26:04.067Z,-0.75
2023-02-26T00:27:04.150Z,-0.81
2023-02-26T00:28:03.980Z,-0.81
2023-02-26T00:29:03.997Z,-0.81
2023-02-26T00:30:04.071Z,-0.81
2023-02-26T00:31:04.131Z,-0.81
2023-02-26T00:32:04.221Z,-0.81
2023-02-26T00:33:04.018Z,-0.81
2023-02-26T00:34:04.092Z,-0.81
2023-02-26T00:35:03.993Z,-0.81
2023-02-26T00:36:04.001Z,-0.81
2023-02-26T00:37:03.910Z,-0.81
2023-02-26T00:38:03.979Z,-0.81
2023-02-26T00:39:03.842Z,-0.81
2023-02-26T00:40:03.747Z,-0.81
2023-02-26T00:41:04.039Z,-0.81
2023-02-26T00:42:03.908Z,-0.81
2023-02-26T00:43:03.903Z,-0.81
2023-02-26T00:44:04.011Z,-0.81
2023-02-26T00:45:03.929Z,-0.81
2023-02-26T00:46:04.061Z,-0.81
2023-02-26T00:47:03.907Z,-0.81
2023-02-26T00:48:04.088Z,-0.81
2023-02-26T00:49:03.906Z,-0.81
2023-02-26T00:50:04.012Z,-0.81
2023-02-26T00:51:04.000Z,-0.81
2023-02-26T00:52:03.998Z,-0.81
2023-02-26T00:53:03.899Z,-0.81
2023-02-26T00:54:04.071Z,-0.81
2023-02-26T00:55:04.065Z,-0.81
2023-02-26T00:56:04.072Z,-0.75
2023-02-26T00:57:04.167Z,-0.75
2023-02-26T00:58:03.982Z,-0.75
2023-02-26T00:59:04.070Z,-0.75
2023-02-26T01:00:04.074Z,-0.75
2023-02-26T01:01:04.390Z,-0.75
2023-02-26T01:02:04.389Z,-0.75
2023-02-26T01:03:04.500Z,-0.75
2023-02-26T01:04:04.504Z,-0.75
2023-02-26T01:05:04.312Z,-0.75
2023-02-26T01:06:05.186Z,-0.69
2023-02-26T01:07:04.387Z,-0.75
2023-02-26T01:08:04.313Z,-0.75
2023-02-26T01:09:04.322Z,-0.75
2023-02-26T01:10:04.554Z,-0.75
2023-02-26T01:11:03.667Z,-0.75
2023-02-26T01:12:03.839Z,-0.75
2023-02-26T01:13:03.827Z,-0.75
2023-02-26T01:14:03.749Z,-0.75
2023-02-26T01:15:03.830Z,-0.75
2023-02-26T01:16:03.793Z,-0.81
2023-02-26T01:17:03.842Z,-0.75
2023-02-26T01:18:04.420Z,-0.75
2023-02-26T01:19:03.738Z,-0.69
2023-02-26T01:20:03.840Z,-0.69
2023-02-26T01:21:03.907Z,-0.75
2023-02-26T01:22:03.922Z,-0.75
2023-02-26T01:23:03.945Z,-0.75
2023-02-26T01:24:03.988Z,-0.75
2023-02-26T01:25:03.991Z,-0.75
2023-02-26T01:26:03.984Z,-0.75
2023-02-26T01:27:03.904Z,-0.75
2023-02-26T01:28:04.009Z,-0.75
2023-02-26T01:29:04.083Z,-0.75
2023-02-26T01:30:04.012Z,-0.75
2023-02-26T01:31:04.267Z,-0.75
2023-02-26T01:32:04.310Z,-0.75
2023-02-26T01:33:04.065Z,-0.75
2023-02-26T01:34:04.186Z,-0.75
2023-02-26T01:35:04.239Z,-0.75
2023-02-26T01:36:04.334Z,-0.75
2023-02-26T01:37:04.309Z,-0.75
2023-02-26T01:38:04.315Z,-0.75
2023-02-26T01:39:03.584Z,-0.75
2023-02-26T01:40:03.595Z,-0.75
2023-02-26T01:41:03.509Z,-0.75
2023-02-26T01:42:03.508Z,-0.81
2023-02-26T01:43:04.385Z,-0.81
2023-02-26T01:44:03.513Z,-0.81
2023-02-26T01:45:03.517Z,-0.81
2023-02-26T01:46:03.738Z,-0.81
2023-02-26T01:47:03.666Z,-0.81
2023-02-26T01:48:03.687Z,-0.81
2023-02-26T01:49:03.601Z,-0.81
2023-02-26T01:50:03.602Z,-0.81
2023-02-26T01:51:03.588Z,-0.81
2023-02-26T01:52:03.602Z,-0.81
2023-02-26T01:53:03.604Z,-0.81
2023-02-26T01:54:03.511Z,-0.81
2023-02-26T01:55:03.606Z,-0.81
2023-02-26T01:56:03.669Z,-0.81
2023-02-26T01:57:03.915Z,-0.88
2023-02-26T01:58:04.384Z,-0.81
2023-02-26T01:59:04.231Z,-0.81
2023-02-26T02:00:04.404Z,-0.81
2023-02-26T02:01:04.332Z,-0.81
2023-02-26T02:02:04.258Z,-0.81
2023-02-26T02:03:04.391Z,-0.75
2023-02-26T02:04:04.243Z,-0.75
2023-02-26T02:05:04.241Z,-0.81
2023-02-26T02:06:04.159Z,-0.81
2023-02-26T02:07:04.153Z,-0.81
2023-02-26T02:08:04.072Z,-0.81
2023-02-26T02:09:04.181Z,-0.81
2023-02-26T02:10:04.153Z,-0.75
2023-02-26T02:11:03.995Z,-0.81
2023-02-26T02:12:04.016Z,-0.81
2023-02-26T02:13:04.145Z,-0.88
2023-02-26T02:14:04.065Z,-0.81
2023-02-26T02:15:04.154Z,-0.81
2023-02-26T02:16:04.132Z,-0.88
2023-02-26T02:17:04.241Z,-0.88
2023-02-26T02:18:04.160Z,-0.88
2023-02-26T02:19:04.150Z,-0.88
2023-02-26T02:20:04.152Z,-0.81
2023-02-26T02:21:04.070Z,-0.81
2023-02-26T02:22:04.249Z,-0.81
2023-02-26T02:23:04.071Z,-0.88
2023-02-26T02:24:04.142Z,-0.81
2023-02-26T02:25:04.097Z,-0.81
2023-02-26T02:26:04.065Z,-0.88
2023-02-26T02:27:04.158Z,-0.88
2023-02-26T02:28:04.080Z,-0.88
2023-02-26T02:29:04.007Z,-0.88
2023-02-26T02:30:04.078Z,-0.88
2023-02-26T02:31:04.063Z,-0.88
2023-02-26T02:32:04.257Z,-0.88
2023-02-26T02:33:03.905Z,-0.88
2023-02-26T02:34:03.902Z,-0.88
2023-02-26T02:35:04.024Z,-0.88
2023-02-26T02:36:04.074Z,-0.88
2023-02-26T02:37:04.060Z,-0.88
2023-02-26T02:38:04.066Z,-0.88
2023-02-26T02:39:04.082Z,-0.88
2023-02-26T02:40:04.224Z,-0.88
2023-02-26T02:41:04.155Z,-0.88
2023-02-26T02:42:04.148Z,-0.88
2023-02-26T02:43:04.166Z,-0.88
2023-02-26T02:44:04.150Z,-0.81
2023-02-26T02:45:04.151Z,-0.88
2023-02-26T02:46:04.130Z,-0.88
2023-02-26T02:47:04.095Z,-0.81
2023-02-26T02:48:04.146Z,-0.88
2023-02-26T02:49:04.119Z,-0.88
2023-02-26T02:50:04.065Z,-0.88
2023-02-26T02:51:04.142Z,-0.81
2023-02-26T02:52:04.060Z,-0.88
2023-02-26T02:53:04.230Z,-0.88
2023-02-26T02:54:04.308Z,-0.88
2023-02-26T02:55:04.222Z,-0.88
2023-02-26T02:56:04.311Z,-0.88
2023-02-26T02:57:04.320Z,-0.88
2023-02-26T02:58:04.317Z,-0.94
2023-02-26T02:59:04.232Z,-0.94
2023-02-26T03:00:04.390Z,-0.94
2023-02-26T03:01:04.573Z,-0.94
2023-02-26T03:02:04.390Z,-0.94
2023-02-26T03:03:04.304Z,-0.94
2023-02-26T03:04:04.305Z,-0.94
2023-02-26T03:05:04.394Z,-0.94
2023-02-26T03:06:04.395Z,-0.94
2023-02-26T03:07:03.521Z,-0.94
2023-02-26T03:08:03.514Z,-0.94
2023-02-26T03:09:03.500Z,-0.94
2023-02-26T03:10:04.467Z,-1.00
2023-02-26T03:11:04.471Z,-1.00
2023-02-26T03:12:03.600Z,-1.00
2023-02-26T03:13:04.383Z,-1.00
2023-02-26T03:14:04.380Z,-1.00
2023-02-26T03:15:03.590Z,-1.00
2023-02-26T03:16:04.469Z,-1.00
2023-02-26T03:17:04.466Z,-1.00
2023-02-26T03:18:04.399Z,-1.00
2023-02-26T03:19:04.387Z,-1.00
2023-02-26T03:20:04.466Z,-1.00
2023-02-26T03:21:03.517Z,-1.00
2023-02-26T03:22:03.510Z,-1.00
2023-02-26T03:23:03.669Z,-1.00
2023-02-26T03:24:03.670Z,-0.94
2023-02-26T03:25:03.674Z,-0.94
2023-02-26T03:26:03.667Z,-0.94
2023-02-26T03:27:03.586Z,-0.94
2023-02-26T03:28:03.761Z,-0.94
2023-02-26T03:29:04.241Z,-1.00
2023-02-26T03:30:04.246Z,-0.94
2023-02-26T03:31:04.249Z,-0.94
2023-02-26T03:32:04.374Z,-1.00
2023-02-26T03:33:04.321Z,-1.00
2023-02-26T03:34:04.224Z,-1.00
2023-02-26T03:35:04.241Z,-1.00
2023-02-26T03:36:04.152Z,-1.00
2023-02-26T03:37:04.157Z,-1.00
2023-02-26T03:38:04.070Z,-1.00
2023-02-26T03:39:03.988Z,-1.00
2023-02-26T03:40:03.921Z,-0.94
2023-02-26T03:41:03.922Z,-0.94
2023-02-26T03:42:03.915Z,-0.94
2023-02-26T03:43:04.001Z,-1.00
2023-02-26T03:44:03.911Z,-1.00
2023-02-26T03:45:03.917Z,-1.06
2023-02-26T03:46:04.041Z,-1.00
2023-02-26T03:47:04.068Z,-1.00
2023-02-26T03:48:04.151Z,-1.00
2023-02-26T03:49:04.215Z,-1.00
2023-02-26T03:50:04.164Z,-1.00
2023-02-26T03:51:04.324Z,-1.00
2023-02-26T03:52:04.307Z,-1.06
2023-02-26T03:53:04.488Z,-1.00
2023-02-26T03:54:04.484Z,-1.00
2023-02-26T03:55:04.387Z,-1.00
2023-02-26T03:56:04.478Z,-1.06
2023-02-26T03:57:03.517Z,-1.06
2023-02-26T03:58:03.604Z,-1.06
2023-02-26T03:59:03.599Z,-1.06
2023-02-26T04:00:03.608Z,-1.12
2023-02-26T04:01:03.682Z,-1.12
2023-02-26T04:02:03.704Z,-1.12
2023-02-26T04:03:03.691Z,-1.12
2023-02-26T04:04:03.744Z,-1.12
2023-02-26T04:05:03.686Z,-1.12
2023-02-26T04:06:03.688Z,-1.12
2023-02-26T04:07:03.691Z,-1.12
2023-02-26T04:08:03.750Z,-1.06
2023-02-26T04:09:03.781Z,-1.06
2023-02-26T04:10:03.829Z,-1.12
2023-02-26T04:11:03.843Z,-1.06
2023-02-26T04:12:03.945Z,-1.06
2023-02-26T04:13:03.834Z,-1.12
2023-02-26T04:14:03.915Z,-1.12
2023-02-26T04:15:03.904Z,-1.12
2023-02-26T04:16:03.918Z,-1.12
2023-02-26T04:17:03.940Z,-1.12
2023-02-26T04:18:03.841Z,-1.06
2023-02-26T04:19:03.915Z,-1.12
2023-02-26T04:20:03.856Z,-1.12
2023-02-26T04:21:03.852Z,-1.12
2023-02-26T04:22:03.924Z,-1.19
2023-02-26T04:23:03.914Z,-1.12
2023-02-26T04:24:03.833Z,-1.12
2023-02-26T04:25:04.720Z,-1.19
2023-02-26T04:26:03.847Z,-1.19
2023-02-26T04:27:03.671Z,-1.19
2023-02-26T04:28:03.690Z,-1.19
2023-02-26T04:29:03.668Z,-1.19
2023-02-26T04:30:03.582Z,-1.19
2023-02-26T04:31:03.741Z,-1.19
2023-02-26T04:32:03.701Z,-1.19
2023-02-26T04:33:03.673Z,-1.19
2023-02-26T04:34:03.674Z,-1.19
2023-02-26T04:35:03.760Z,-1.19
2023-02-26T04:36:03.759Z,-1.19
2023-02-26T04:37:03.668Z,-1.19
2023-02-26T04:38:03.681Z,-1.25
2023-02-26T04:39:03.661Z,-1.25
2023-02-26T04:40:03.740Z,-1.19
2023-02-26T04:41:03.929Z,-1.25
2023-02-26T04:42:03.822Z,-1.19
2023-02-26T04:43:03.911Z,-1.25
2023-02-26T04:44:03.935Z,-1.19
2023-02-26T04:45:03.955Z,-1.19
2023-02-26T04:46:04.097Z,-1.25
2023-02-26T04:47:04.027Z,-1.25
2023-02-26T04:48:04.076Z,-1.25
2023-02-26T04:49:03.912Z,-1.25
2023-02-26T04:50:04.066Z,-1.19
2023-02-26T04:51:04.078Z,-1.19
2023-02-26T04:52:04.323Z,-1.25
2023-02-26T04:53:04.238Z,-1.19
2023-02-26T04:54:04.242Z,-1.19
2023-02-26T04:55:04.252Z,-1.19
2023-02-26T04:56:04.227Z,-1.19
2023-02-26T04:57:04.387Z,-1.19
2023-02-26T04:58:04.396Z,-1.19
2023-02-26T04:59:03.431Z,-1.19
2023-02-26T05:00:03.597Z,-1.25
2023-02-26T05:01:03.586Z,-1.25
2023-02-26T05:02:03.686Z,-1.25
2023-02-26T05:03:03.593Z,-1.31
2023-02-26T05:04:03.663Z,-1.31
2023-02-26T05:05:04.552Z,-1.31
2023-02-26T05:06:03.757Z,-1.31
2023-02-26T05:07:03.752Z,-1.31
2023-02-26T05:08:03.824Z,-1.38
2023-02-26T05:09:03.907Z,-1.38
2023-02-26T05:10:04.000Z,-1.38
2023-02-26T05:11:03.994Z,-1.38
2023-02-26T05:12:03.987Z,-1.31
2023-02-26T05:13:04.157Z,-1.31
2023-02-26T05:14:04.147Z,-1.31
2023-02-26T05:15:04.157Z,-1.31
2023-02-26T05:16:04.291Z,-1.38
2023-02-26T05:17:04.227Z,-1.50
2023-02-26T05:18:04.404Z,-1.50
2023-02-26T05:19:04.321Z,-1.50
2023-02-26T05:20:04.410Z,-1.44
2023-02-26T05:21:04.401Z,-1.50
2023-02-26T05:22:04.315Z,-1.50
2023-02-26T05:23:04.239Z,-1.44
2023-02-26T05:24:04.257Z,-1.44
2023-02-26T05:25:04.508Z,-1.44
2023-02-26T05:26:04.465Z,-1.44
2023-02-26T05:27:04.481Z,-1.44
2023-02-26T05:28:04.474Z,-1.44
2023-02-26T05:29:04.394Z,-1.44
2023-02-26T05:30:04.311Z,-1.44
2023-02-26T05:31:04.560Z,-1.44
2023-02-26T05:32:03.550Z,-1.44
2023-02-26T05:33:04.473Z,-1.50
2023-02-26T05:34:04.474Z,-1.56
2023-02-26T05:35:03.510Z,-1.56
2023-02-26T05:36:03.506Z,-1.56
2023-02-26T05:37:03.553Z,-1.50
2023-02-26T05:38:03.454Z,-1.50
2023-02-26T05:39:04.472Z,-1.56
2023-02-26T05:40:03.596Z,-1.56
2023-02-26T05:41:03.681Z,-1.56
2023-02-26T05:42:04.073Z,-1.62
2023-02-26T05:43:04.229Z,-1.62
2023-02-26T05:44:04.229Z,-1.56
2023-02-26T05:45:04.245Z,-1.56
2023-02-26T05:46:04.155Z,-1.56
2023-02-26T05:47:04.191Z,-1.56
2023-02-26T05:48:04.307Z,-1.56
2023-02-26T05:49:04.401Z,-1.56
2023-02-26T05:50:03.526Z,-1.56
2023-02-26T05:51:03.682Z,-1.56
2023-02-26T05:52:03.673Z,-1.56
2023-02-26T05:53:03.591Z,-1.56
2023-02-26T05:54:03.583Z,-1.50
2023-02-26T05:55:03.671Z,-1.56
2023-02-26T05:56:03.710Z,-1.56
2023-02-26T05:57:03.743Z,-1.56
2023-02-26T05:58:03.860Z,-1.56
2023-02-26T05:59:03.668Z,-1.56
2023-02-26T06:00:03.674Z,-1.56
2023-02-26T06:01:03.590Z,-1.50
2023-02-26T06:02:03.831Z,-1.50
2023-02-26T06:03:03.855Z,-1.50
2023-02-26T06:04:03.751Z,-1.50
2023-02-26T06:05:03.779Z,-1.50
2023-02-26T06:06:03.827Z,-1.50
2023-02-26T06:07:03.746Z,-1.50
2023-02-26T06:08:03.740Z,-1.50
2023-02-26T06:09:03.833Z,-1.56
2023-02-26T06:10:03.751Z,-1.56
2023-02-26T06:11:03.668Z,-1.56
2023-02-26T06:12:03.756Z,-1.56
2023-02-26T06:13:03.746Z,-1.56
2023-02-26T06:14:03.822Z,-1.56
2023-02-26T06:15:03.915Z,-1.56
2023-02-26T06:16:03.844Z,-1.56
2023-02-26T06:17:03.904Z,-1.56
2023-02-26T06:18:03.984Z,-1.56
2023-02-26T06:19:03.904Z,-1.56
2023-02-26T06:20:03.986Z,-1.56
2023-02-26T06:21:04.071Z,-1.56
2023-02-26T06:22:04.083Z,-1.56
2023-02-26T06:23:03.996Z,-1.50
2023-02-26T06:24:03.898Z,-1.50
2023-02-26T06:25:03.998Z,-1.50
2023-02-26T06:26:03.999Z,-1.44
2023-02-26T06:27:03.983Z,-1.38
2023-02-26T06:28:03.978Z,-1.44
2023-02-26T06:29:04.146Z,-1.38
2023-02-26T06:30:04.163Z,-1.38
2023-02-26T06:31:04.281Z,-1.38
2023-02-26T06:32:04.403Z,-1.38
2023-02-26T06:33:04.337Z,-1.38
2023-02-26T06:34:04.314Z,-1.38
2023-02-26T06:35:04.246Z,-1.38
2023-02-26T06:36:04.162Z,-1.38
2023-02-26T06:37:04.233Z,-1.38
2023-02-26T06:38:04.311Z,-1.38
2023-02-26T06:39:04.240Z,-1.38
2023-02-26T06:40:04.316Z,-1.38
2023-02-26T06:41:04.466Z,-1.31
2023-02-26T06:42:04.401Z,-1.31
2023-02-26T06:43:04.479Z,-1.31
2023-02-26T06:44:04.397Z,-1.31
2023-02-26T06:45:03.515Z,-1.31
2023-02-26T06:46:04.624Z,-1.25
2023-02-26T06:47:04.560Z,-1.25
2023-02-26T06:48:04.496Z,-1.25
2023-02-26T06:49:04.393Z,-1.25
2023-02-26T06:50:04.390Z,-1.25
2023-02-26T06:51:03.514Z,-1.25
2023-02-26T06:52:04.414Z,-1.25
2023-02-26T06:53:04.411Z,-1.25
2023-02-26T06:54:04.479Z,-1.19
2023-02-26T06:55:04.356Z,-1.19
2023-02-26T06:56:04.239Z,-1.19
2023-02-26T06:57:04.318Z,-1.19
2023-02-26T06:58:04.240Z,-1.12
2023-02-26T06:59:04.321Z,-1.12
2023-02-26T07:00:04.423Z,-1.12
2023-02-26T07:01:04.351Z,-1.12
2023-02-26T07:02:04.405Z,-1.12
2023-02-26T07:03:04.317Z,-1.12
2023-02-26T07:04:04.233Z,-1.12
2023-02-26T07:05:04.317Z,-1.12
2023-02-26T07:06:23.920Z,-1.06
2023-02-26T07:07:04.393Z,-1.06
2023-02-26T07:08:04.387Z,-1.06
2023-02-26T07:09:03.594Z,-1.06
2023-02-26T07:10:03.614Z,-1.06
2023-02-26T07:11:03.516Z,-1.06
2023-02-26T07:12:03.616Z,-1.06
2023-02-26T07:13:03.603Z,-1.06
2023-02-26T07:14:03.601Z,-1.06
2023-02-26T07:15:03.595Z,-1.12
2023-02-26T07:16:03.682Z,-1.06
2023-02-26T07:17:03.735Z,-1.06
2023-02-26T07:18:03.687Z,-1.06
2023-02-26T07:19:03.678Z,-1.06
2023-02-26T07:20:03.602Z,-1.06
2023-02-26T07:21:03.625Z,-1.12
2023-02-26T07:22:03.512Z,-1.06
2023-02-26T07:23:03.531Z,-1.06
2023-02-26T07:24:03.606Z,-1.06
2023-02-26T07:25:03.608Z,-1.00
2023-02-26T07:26:03.930Z,-1.00
2023-02-26T07:27:03.749Z,-1.00
2023-02-26T07:28:03.754Z,-1.00
2023-02-26T07:29:03.840Z,-1.06
2023-02-26T07:30:03.846Z,-1.00
2023-02-26T07:31:04.037Z,-1.00
2023-02-26T07:32:03.934Z,-1.00
2023-02-26T07:33:03.905Z,-1.00
2023-02-26T07:34:04.005Z,-0.94
2023-02-26T07:35:03.998Z,-0.88
2023-02-26T07:36:03.998Z,-0.88
2023-02-26T07:37:03.988Z,-0.88
2023-02-26T07:38:04.078Z,-0.88
2023-02-26T07:39:04.074Z,-0.88
2023-02-26T07:40:04.244Z,-0.88
2023-02-26T07:41:04.324Z,-0.81
2023-02-26T07:42:04.321Z,-0.88
2023-02-26T07:43:04.307Z,-0.81
2023-02-26T07:44:04.315Z,-0.81
2023-02-26T07:45:04.394Z,-0.81
2023-02-26T07:46:04.329Z,-0.75
2023-02-26T07:47:04.415Z,-0.75
2023-02-26T07:48:04.398Z,-0.69
2023-02-26T07:49:04.311Z,-0.69
2023-02-26T07:50:04.464Z,-0.69
2023-02-26T07:51:04.387Z,-0.69
2023-02-26T07:52:04.468Z,-0.62
2023-02-26T07:53:04.462Z,-0.69
2023-02-26T07:54:04.476Z,-0.62
2023-02-26T07:55:04.381Z,-0.62
2023-02-26T07:56:04.393Z,-0.56
2023-02-26T07:57:04.480Z,-0.56
2023-02-26T07:58:04.431Z,-0.50
2023-02-26T07:59:04.387Z,-0.50
2023-02-26T08:00:04.394Z,-0.56
2023-02-26T08:01:04.478Z,-0.50
2023-02-26T08:02:04.472Z,-0.56
2023-02-26T08:03:04.462Z,-0.56
2023-02-26T08:04:04.491Z,-0.50
2023-02-26T08:05:03.508Z,-0.56
2023-02-26T08:06:03.675Z,-0.56
2023-02-26T08:07:03.748Z,-0.69
2023-02-26T08:08:03.668Z,-0.69
2023-02-26T08:09:03.667Z,-0.62
2023-02-26T08:10:03.674Z,-0.62
2023-02-26T08:11:03.836Z,-0.62
2023-02-26T08:12:03.746Z,-0.62
2023-02-26T08:13:03.781Z,-0.56
2023-02-26T08:14:03.911Z,-0.62
2023-02-26T08:15:03.821Z,-0.62
2023-02-26T08:16:03.869Z,-0.56
2023-02-26T08:17:03.913Z,-0.62
2023-02-26T08:18:03.909Z,-0.62
2023-02-26T08:19:03.821Z,-0.62
2023-02-26T08:20:03.825Z,-0.62
2023-02-26T08:21:03.742Z,-0.69
2023-02-26T08:22:03.909Z,-0.69
2023-02-26T08:23:03.912Z,-0.69
2023-02-26T08:24:03.910Z,-0.69
2023-02-26T08:25:04.389Z,-0.69
2023-02-26T08:26:04.383Z,-0.62
2023-02-26T08:27:03.519Z,-0.62
2023-02-26T08:28:03.427Z,-0.56
2023-02-26T08:29:03.512Z,-0.56
2023-02-26T08:30:03.674Z,-0.50
2023-02-26T08:31:03.666Z,-0.56
2023-02-26T08:32:03.674Z,-0.62
2023-02-26T08:33:03.594Z,-0.62
2023-02-26T08:34:03.511Z,-0.62
2023-02-26T08:35:03.510Z,-0.56
2023-02-26T08:36:03.537Z,-0.56
2023-02-26T08:37:03.672Z,-0.50
2023-02-26T08:38:03.748Z,-0.44
2023-02-26T08:39:03.669Z,-0.44
2023-02-26T08:40:03.675Z,-0.44
2023-02-26T08:41:03.748Z,-0.44
2023-02-26T08:42:03.748Z,-0.38
2023-02-26T08:43:03.832Z,-0.31
2023-02-26T08:44:03.835Z,-0.31
2023-02-26T08:45:03.743Z,-0.31
2023-02-26T08:46:03.751Z,-0.31
2023-02-26T08:47:03.843Z,-0.31
2023-02-26T08:48:03.756Z,-0.31
2023-02-26T08:49:03.764Z,-0.31
2023-02-26T08:50:03.833Z,-0.25
2023-02-26T08:51:03.828Z,-0.25
2023-02-26T08:52:03.831Z,-0.19
2023-02-26T08:53:03.760Z,-0.19
2023-02-26T08:54:03.853Z,-0.19
2023-02-26T08:55:03.873Z,-0.12
2023-02-26T08:56:03.830Z,-0.12
2023-02-26T08:57:03.676Z,-0.12
2023-02-26T08:58:03.668Z,-0.06
2023-02-26T08:59:03.677Z,0.00
2023-02-26T09:00:03.592Z,0.00
2023-02-26T09:01:03.594Z,0.00
2023-02-26T09:02:03.568Z,0.06
2023-02-26T09:03:04.501Z,0.12
2023-02-26T09:04:03.512Z,0.19
2023-02-26T09:05:03.596Z,0.25
2023-02-26T09:06:04.237Z,0.31
2023-02-26T09:07:04.237Z,0.31
2023-02-26T09:08:04.311Z,0.38
2023-02-26T09:09:03.916Z,0.31
2023-02-26T09:10:04.074Z,0.31
2023-02-26T09:11:04.162Z,0.38
2023-02-26T09:12:04.144Z,0.38
2023-02-26T09:13:04.145Z,0.44
2023-02-26T09:14:04.245Z,0.44
2023-02-26T09:15:04.248Z,0.44
2023-02-26T09:16:04.346Z,0.38
2023-02-26T09:17:04.396Z,0.38
2023-02-26T09:18:04.392Z,0.38
2023-02-26T09:19:03.509Z,0.31
2023-02-26T09:20:03.528Z,0.38
2023-02-26T09:21:03.548Z,0.38
2023-02-26T09:22:05.882Z,0.44
2023-02-26T09:23:03.588Z,0.44
2023-02-26T09:24:03.592Z,0.50
2023-02-26T09:25:03.822Z,0.50
2023-02-26T09:26:03.753Z,0.44
2023-02-26T09:27:03.836Z,0.50
2023-02-26T09:28:03.830Z,0.50
2023-02-26T09:29:03.683Z,0.44
2023-02-26T09:30:03.765Z,0.38
2023-02-26T09:31:03.911Z,0.38
2023-02-26T09:32:04.041Z,0.38
2023-02-26T09:33:03.834Z,0.38
2023-02-26T09:34:03.838Z,0.38
2023-02-26T09:35:03.922Z,0.38
2023-02-26T09:36:03.838Z,0.31
2023-02-26T09:37:03.927Z,0.38
2023-02-26T09:38:03.851Z,0.38
2023-02-26T09:39:03.999Z,0.31
2023-02-26T09:40:04.013Z,0.38
2023-02-26T09:41:03.992Z,0.38
2023-02-26T09:42:03.916Z,0.44
2023-02-26T09:43:03.901Z,0.44
2023-02-26T09:44:04.088Z,0.56
2023-02-26T09:45:04.100Z,0.56
2023-02-26T09:46:04.130Z,0.62
2023-02-26T09:47:04.088Z,0.62
2023-02-26T09:48:04.163Z,0.62
2023-02-26T09:49:04.236Z,0.62
2023-02-26T09:50:04.073Z,0.56
2023-02-26T09:51:04.082Z,0.62
2023-02-26T09:52:03.905Z,0.62
2023-02-26T09:53:04.077Z,0.62
2023-02-26T09:54:04.077Z,0.62
2023-02-26T09:55:04.077Z,0.69
2023-02-26T09:56:04.070Z,0.69
2023-02-26T09:57:04.162Z,0.75
2023-02-26T09:58:04.077Z,0.75
2023-02-26T09:59:04.087Z,0.75
2023-02-26T10:00:04.095Z,0.75
2023-02-26T10:01:04.070Z,0.81
2023-02-26T10:02:04.172Z,0.75
2023-02-26T10:03:04.160Z,0.75
2023-02-26T10:04:04.208Z,0.69
2023-02-26T10:05:04.227Z,0.69
2023-02-26T10:06:04.161Z,0.62
2023-02-26T10:07:04.187Z,0.62
2023-02-26T10:08:04.315Z,0.62
2023-02-26T10:09:04.333Z,0.69
2023-02-26T10:10:04.326Z,0.75
2023-02-26T10:11:04.237Z,0.75
2023-02-26T10:12:04.347Z,0.75
2023-02-26T10:13:04.424Z,0.75
2023-02-26T10:14:04.313Z,0.81
2023-02-26T10:15:04.420Z,0.81
2023-02-26T10:16:04.407Z,0.81
2023-02-26T10:17:04.645Z,0.88
2023-02-26T10:18:04.395Z,0.94
2023-02-26T10:19:03.463Z,1.00
2023-02-26T10:20:03.534Z,1.06
2023-02-26T10:21:03.619Z,1.06
2023-02-26T10:22:03.766Z,1.06
2023-02-26T10:23:03.603Z,1.06
2023-02-26T10:24:04.423Z,1.12
2023-02-26T10:25:04.312Z,1.19
2023-02-26T10:26:04.488Z,1.19
2023-02-26T10:27:04.398Z,1.19
2023-02-26T10:28:04.398Z,1.19
2023-02-26T10:29:04.475Z,1.19
2023-02-26T10:30:04.397Z,1.19
2023-02-26T10:31:03.683Z,1.25
2023-02-26T10:32:03.713Z,1.25
2023-02-26T10:33:03.762Z,1.25
2023-02-26T10:34:03.748Z,1.31
2023-02-26T10:35:03.680Z,1.31
2023-02-26T10:36:03.782Z,1.31
2023-02-26T10:37:03.783Z,1.38
2023-02-26T10:38:03.824Z,1.44
2023-02-26T10:39:03.787Z,1.44
2023-02-26T10:40:04.304Z,1.44
2023-02-26T10:41:04.247Z,1.44
2023-02-26T10:42:04.311Z,1.44
2023-02-26T10:43:04.317Z,1.44
2023-02-26T10:44:04.316Z,1.44
2023-02-26T10:45:04.230Z,1.50
2023-02-26T10:46:04.453Z,1.50
2023-02-26T10:47:04.380Z,1.50
2023-02-26T10:48:03.594Z,1.50
2023-02-26T10:49:03.599Z,1.50
2023-02-26T10:50:03.509Z,1.56
2023-02-26T10:51:04.485Z,1.50
2023-02-26T10:52:04.380Z,1.56
2023-02-26T10:53:04.488Z,1.56
2023-02-26T10:54:04.386Z,1.50
2023-02-26T10:55:04.468Z,1.56
2023-02-26T10:56:04.471Z,1.56
2023-02-26T10:57:04.377Z,1.56
2023-02-26T10:58:04.466Z,1.56
2023-02-26T10:59:03.584Z,1.62
2023-02-26T11:00:03.577Z,1.62
2023-02-26T11:01:03.698Z,1.62
2023-02-26T11:02:03.732Z,1.62
2023-02-26T11:03:03.786Z,1.69
2023-02-26T11:04:03.798Z,1.69
2023-02-26T11:05:07.703Z,1.75
2023-02-26T11:06:03.777Z,1.75
2023-02-26T11:07:03.847Z,1.81
2023-02-26T11:08:03.916Z,1.88
2023-02-26T11:09:03.952Z,1.88
2023-02-26T11:10:04.095Z,1.81
2023-02-26T11:11:04.093Z,1.75
2023-02-26T11:12:04.000Z,1.75
2023-02-26T11:13:03.842Z,1.81
2023-02-26T11:14:03.921Z,1.88
2023-02-26T11:15:03.845Z,1.94
2023-02-26T11:16:03.943Z,2.00
2023-02-26T11:17:04.070Z,2.00
2023-02-26T11:18:04.004Z,2.06
2023-02-26T11:19:03.992Z,2.00
2023-02-26T11:20:04.077Z,2.00
2023-02-26T11:21:04.156Z,1.94
2023-02-26T11:22:04.269Z,1.94
2023-02-26T11:23:04.181Z,1.94
2023-02-26T11:24:04.178Z,2.00
2023-02-26T11:25:04.181Z,2.00
2023-02-26T11:26:04.151Z,2.06
2023-02-26T11:27:04.432Z,2.06
2023-02-26T11:28:04.329Z,2.12
2023-02-26T11:29:04.333Z,2.06
2023-02-26T11:30:04.336Z,2.12
2023-02-26T11:31:04.368Z,2.19
2023-02-26T11:32:04.518Z,2.19
2023-02-26T11:33:04.311Z,2.19
2023-02-26T11:34:04.390Z,2.25
2023-02-26T11:35:03.545Z,2.31
2023-02-26T11:36:03.523Z,2.31
2023-02-26T11:37:03.526Z,2.31
2023-02-26T11:38:03.615Z,2.31
2023-02-26T11:39:03.601Z,2.31
2023-02-26T11:40:03.599Z,2.31
2023-02-26T11:41:03.521Z,2.31
2023-02-26T11:42:03.600Z,2.38
2023-02-26T11:43:03.596Z,2.38
2023-02-26T11:44:03.694Z,2.38
2023-02-26T11:45:03.832Z,2.44
2023-02-26T11:46:03.936Z,2.50
2023-02-26T11:47:03.910Z,2.50
2023-02-26T11:48:04.397Z,2.50
2023-02-26T11:49:04.394Z,2.50
2023-02-26T11:50:04.390Z,2.44
2023-02-26T11:51:04.463Z,2.50
2023-02-26T11:52:04.400Z,2.50
2023-02-26T11:53:04.309Z,2.56
2023-02-26T11:54:04.305Z,2.62
2023-02-26T11:55:04.385Z,2.69
2023-02-26T11:56:04.387Z,2.69
2023-02-26T11:57:04.390Z,2.75
2023-02-26T11:58:04.465Z,2.75
2023-02-26T11:59:04.481Z,2.75
2023-02-26T12:00:04.388Z,2.75
2023-02-26T12:01:04.502Z,2.75
2023-02-26T12:02:03.508Z,2.75
2023-02-26T12:03:04.482Z,2.75
2023-02-26T12:04:04.677Z,2.81
2023-02-26T12:05:03.421Z,2.88
2023-02-26T12:06:03.503Z,2.88
2023-02-26T12:07:03.690Z,2.81
2023-02-26T12:08:03.586Z,2.88
2023-02-26T12:09:03.753Z,2.94
2023-02-26T12:10:03.748Z,2.94
2023-02-26T12:11:03.679Z,2.94
2023-02-26T12:12:03.692Z,2.94
2023-02-26T12:13:03.751Z,3.00
2023-02-26T12:14:03.689Z,2.94
2023-02-26T12:15:03.701Z,2.94
2023-02-26T12:16:03.728Z,2.88
2023-02-26T12:17:03.664Z,2.81
2023-02-26T12:18:03.746Z,2.81
2023-02-26T12:19:03.748Z,2.81
2023-02-26T12:20:03.743Z,2.81
2023-02-26T12:21:03.714Z,2.88
2023-02-26T12:22:03.666Z,2.94
2023-02-26T12:23:03.589Z,2.94
2023-02-26T12:24:03.594Z,2.88
2023-02-26T12:25:03.582Z,2.88
2023-02-26T12:26:03.508Z,2.88
2023-02-26T12:27:03.601Z,2.88
2023-02-26T12:28:03.514Z,2.81
2023-02-26T12:29:03.579Z,2.81
2023-02-26T12:30:04.391Z,2.81
2023-02-26T12:31:03.636Z,2.75
2023-02-26T12:32:04.585Z,2.69
2023-02-26T12:33:04.386Z,2.62
2023-02-26T12:34:03.587Z,2.69
2023-02-26T12:35:03.594Z,2.69
2023-02-26T12:36:03.693Z,2.69
2023-02-26T12:37:03.674Z,2.69
2023-02-26T12:38:03.748Z,2.62
2023-02-26T12:39:03.678Z,2.62
2023-02-26T12:40:03.756Z,2.62
2023-02-26T12:41:03.745Z,2.69
2023-02-26T12:42:03.829Z,2.69
2023-02-26T12:43:04.007Z,2.62
2023-02-26T12:44:03.993Z,2.56
2023-02-26T12:45:03.997Z,2.56
2023-02-26T12:46:03.914Z,2.50
2023-02-26T12:47:03.929Z,2.44
2023-02-26T12:48:03.998Z,2.38
2023-02-26T12:49:03.916Z,2.38
2023-02-26T12:50:03.999Z,2.44
2023-02-26T12:51:04.020Z,2.44
2023-02-26T12:52:03.923Z,2.50
2023-02-26T12:53:04.007Z,2.50
2023-02-26T12:54:03.931Z,2.50
2023-02-26T12:55:03.828Z,2.50
2023-02-26T12:56:03.905Z,2.50
2023-02-26T12:57:04.076Z,2.44
2023-02-26T12:58:03.934Z,2.31
2023-02-26T12:59:03.758Z,2.31
2023-02-26T13:00:03.772Z,2.31